Time;durP1;ratioP1;P1;durP2;ratioP2;P2;SDS_P1;SDS_P2;PMS_P1;PMS_P2;Temp;Humidity;BMP_temperature;BMP_pressure;BME280_temperature;BME280_humidity;BME280_pressure;Samples;Min_cycle;Max_cycle;Signal;HPM_P1;HPM_P2
2022/06/25 00:01:16;;;;;;;4.10;2.70;;;16.70;99.90;;;;;;4859699;29;20482;-74
2022/06/25 00:03:43;;;;;;;4.37;2.40;;;16.70;99.90;;;;;;4861133;29;20502;-74
2022/06/25 00:06:14;;;;;;;2.20;2.00;;;16.70;99.90;;;;;;4862768;29;20951;-75
2022/06/25 00:08:45;;;;;;;3.63;2.20;;;16.70;99.90;;;;;;4863056;29;20553;-75
2022/06/25 00:12:31;;;;;;;3.17;1.97;;;16.70;99.90;;;;;;4862584;29;20485;-75
2022/06/25 00:14:03;;;;;;;2.90;2.70;;;16.60;99.90;;;;;;4860527;29;20746;-75
2022/06/25 00:16:32;;;;;;;2.20;2.10;;;16.60;99.90;;;;;;4860310;29;20556;-78
2022/06/25 00:18:58;;;;;;;2.67;2.20;;;16.50;99.90;;;;;;4859062;29;20766;-74
2022/06/25 00:21:25;;;;;;;2.57;2.37;;;16.50;99.90;;;;;;4859710;29;20825;-75
2022/06/25 00:23:52;;;;;;;3.00;2.80;;;16.50;99.90;;;;;;4862567;29;20464;-75
2022/06/25 00:26:19;;;;;;;3.50;2.00;;;16.50;99.90;;;;;;4861989;29;20831;-75
2022/06/25 00:28:46;;;;;;;2.27;2.07;;;16.40;99.90;;;;;;4862486;29;20466;-75
2022/06/25 00:31:13;;;;;;;2.40;2.30;;;16.40;99.90;;;;;;4862379;29;20498;-75
2022/06/25 00:33:41;;;;;;;3.00;2.80;;;16.40;99.90;;;;;;4862699;29;20429;-74
2022/06/25 00:36:08;;;;;;;2.77;2.57;;;16.40;99.90;;;;;;4863013;29;20438;-76
2022/06/25 00:38:35;;;;;;;5.00;2.70;;;16.50;99.90;;;;;;4864616;29;20838;-75
2022/06/25 00:41:03;;;;;;;3.90;2.57;;;16.50;99.90;;;;;;4863790;29;20456;-74
2022/06/25 00:43:31;;;;;;;2.30;2.20;;;16.50;99.90;;;;;;4864436;29;20501;-75
2022/06/25 00:45:58;;;;;;;2.50;2.30;;;16.40;99.90;;;;;;4864594;29;20449;-75
2022/06/25 00:48:25;;;;;;;2.63;2.40;;;16.40;99.90;;;;;;4864536;29;20885;-74
2022/06/25 00:50:59;;;;;;;3.80;2.33;;;16.50;99.90;;;;;;4863829;29;20982;-76
2022/06/25 00:53:31;;;;;;;2.20;2.10;;;16.50;99.90;;;;;;4863097;29;20466;-74
2022/06/25 00:56:00;;;;;;;2.10;2.00;;;16.50;99.90;;;;;;4862652;29;20824;-75
2022/06/25 00:58:31;;;;;;;3.30;2.13;;;16.50;99.90;;;;;;4862976;29;20490;-75
2022/06/25 01:00:59;;;;;;;2.10;2.00;;;16.50;99.90;;;;;;4871413;29;20478;-75
2022/06/25 01:03:26;;;;;;;2.77;2.57;;;16.50;99.90;;;;;;4868374;29;20554;-75
2022/06/25 01:05:54;;;;;;;2.23;1.90;;;16.50;99.90;;;;;;4862537;29;20469;-74
2022/06/25 01:08:22;;;;;;;2.03;1.93;;;16.60;99.90;;;;;;4862976;29;20480;-75
2022/06/25 01:10:49;;;;;;;4.03;2.10;;;16.60;99.90;;;;;;4862750;29;20492;-74
2022/06/25 01:13:16;;;;;;;4.73;2.20;;;16.60;99.90;;;;;;4862439;29;20460;-74
2022/06/25 01:15:45;;;;;;;2.20;2.10;;;16.60;99.90;;;;;;4954361;23;21318;-84
2022/06/25 01:18:12;;;;;;;1.90;1.80;;;16.70;99.90;;;;;;4857121;29;20439;-83
2022/06/25 01:20:39;;;;;;;2.40;2.20;;;16.70;99.90;;;;;;4862027;29;20452;-85
2022/06/25 01:23:07;;;;;;;4.50;2.40;;;16.70;99.90;;;;;;4861161;29;20498;-86
2022/06/25 01:25:35;;;;;;;2.10;2.00;;;16.70;99.90;;;;;;4853331;29;20490;-83
2022/06/25 01:28:02;;;;;;;2.03;1.93;;;16.70;99.90;;;;;;4841928;29;20458;-85
2022/06/25 01:30:29;;;;;;;2.50;2.30;;;16.70;99.90;;;;;;4844400;29;20464;-86
2022/06/25 01:32:56;;;;;;;3.53;2.10;;;16.70;99.90;;;;;;4848777;29;20515;-87
2022/06/25 01:35:23;;;;;;;3.27;2.30;;;16.70;99.90;;;;;;4841505;29;21016;-83
2022/06/25 01:37:51;;;;;;;2.60;2.40;;;16.70;99.90;;;;;;4834200;29;20470;-84
2022/06/25 01:40:19;;;;;;;3.23;2.27;;;16.60;99.90;;;;;;4834020;29;20780;-84
2022/06/25 01:43:01;;;;;;;2.40;2.20;;;16.60;99.90;;;;;;4833433;29;20492;-86
2022/06/25 01:45:29;;;;;;;3.13;2.20;;;16.70;99.90;;;;;;4833511;29;20547;-85
2022/06/25 01:47:57;;;;;;;2.30;2.10;;;16.60;99.90;;;;;;4832408;29;20464;-84
2022/06/25 01:50:24;;;;;;;3.40;2.30;;;16.60;99.90;;;;;;4833581;29;20468;-83
2022/06/25 01:52:51;;;;;;;2.70;2.50;;;16.50;99.90;;;;;;4833274;29;20460;-85
2022/06/25 01:55:20;;;;;;;2.40;2.20;;;16.50;99.90;;;;;;4833192;29;20472;-84
2022/06/25 01:57:47;;;;;;;2.57;2.37;;;16.50;99.90;;;;;;4833981;29;20471;-84
2022/06/25 02:00:16;;;;;;;2.37;2.20;;;16.40;99.90;;;;;;4832907;29;20995;-84
2022/06/25 02:02:43;;;;;;;2.47;2.27;;;16.30;99.90;;;;;;4833218;29;20519;-83
2022/06/25 02:05:11;;;;;;;4.93;2.20;;;16.30;99.90;;;;;;4833730;29;20941;-84
2022/06/25 02:07:39;;;;;;;2.50;2.30;;;16.20;99.90;;;;;;4833925;29;20484;-84
2022/06/25 02:10:07;;;;;;;3.40;1.80;;;16.20;99.90;;;;;;4833617;29;20463;-84
2022/06/25 02:12:36;;;;;;;2.50;2.07;;;16.10;99.90;;;;;;4840955;29;20439;-85
2022/06/25 02:15:03;;;;;;;2.90;2.70;;;16.10;99.90;;;;;;4841486;29;20463;-84
2022/06/25 02:17:30;;;;;;;5.20;2.43;;;16.00;99.90;;;;;;4843298;29;20515;-85
2022/06/25 02:19:57;;;;;;;3.23;2.30;;;16.00;99.90;;;;;;4842148;29;20491;-83
2022/06/25 02:22:24;;;;;;;2.30;1.90;;;16.00;99.90;;;;;;4843235;29;20493;-86
2022/06/25 02:24:53;;;;;;;4.00;2.47;;;15.90;99.90;;;;;;4844850;29;20448;-86
2022/06/25 02:27:19;;;;;;;2.83;2.53;;;15.90;99.90;;;;;;4841955;29;20487;-84
2022/06/25 02:29:48;;;;;;;2.70;2.50;;;15.90;99.90;;;;;;4842952;29;20475;-87
2022/06/25 02:32:15;;;;;;;3.00;2.70;;;15.90;99.90;;;;;;4843031;29;20518;-84
2022/06/25 02:34:42;;;;;;;4.67;2.70;;;15.90;99.90;;;;;;4837526;29;20464;-83
2022/06/25 02:37:08;;;;;;;4.40;2.67;;;15.90;99.90;;;;;;4832297;29;20498;-82
2022/06/25 02:39:35;;;;;;;5.90;2.57;;;15.90;99.90;;;;;;4834139;29;20468;-83
2022/06/25 02:42:02;;;;;;;2.63;2.43;;;15.90;99.90;;;;;;4845734;29;20490;-83
2022/06/25 02:44:29;;;;;;;6.50;2.40;;;15.90;99.90;;;;;;4839859;29;20913;-83
2022/06/25 02:46:57;;;;;;;2.83;2.63;;;15.90;99.90;;;;;;4848038;29;20553;-87
2022/06/25 02:49:24;;;;;;;2.90;2.13;;;16.00;99.90;;;;;;4841936;29;20479;-84
2022/06/25 02:51:51;;;;;;;5.10;2.10;;;15.80;99.90;;;;;;4831838;29;20503;-83
2022/06/25 02:54:18;;;;;;;2.03;1.93;;;15.80;99.90;;;;;;4832110;29;20450;-85
2022/06/25 02:59:29;;;;;;;2.67;2.27;;;15.90;99.90;;;;;;4831938;29;20409;-84
2022/06/25 03:01:58;;;;;;;2.27;2.07;;;15.80;99.90;;;;;;4834956;29;20517;-86
2022/06/25 03:04:25;;;;;;;2.30;2.17;;;15.80;99.90;;;;;;4839948;29;20491;-86
2022/06/25 03:06:52;;;;;;;2.40;2.20;;;15.80;99.90;;;;;;4845199;29;20503;-85
2022/06/25 03:09:19;;;;;;;2.50;2.30;;;15.80;99.90;;;;;;4842161;29;20442;-84
2022/06/25 03:11:46;;;;;;;3.37;2.10;;;15.80;99.90;;;;;;4839718;29;20468;-85
2022/06/25 03:14:13;;;;;;;2.77;2.17;;;15.80;99.90;;;;;;4843736;29;20430;-86
2022/06/25 03:16:40;;;;;;;2.60;2.40;;;15.70;99.90;;;;;;4842610;29;20495;-86
2022/06/25 03:19:09;;;;;;;2.40;2.20;;;15.70;99.90;;;;;;4839841;29;20468;-83
2022/06/25 03:21:36;;;;;;;2.40;2.20;;;15.70;99.90;;;;;;4840240;29;20531;-85
2022/06/25 03:24:04;;;;;;;2.37;2.20;;;15.60;99.90;;;;;;4841750;29;20496;-85
2022/06/25 03:26:31;;;;;;;2.90;2.70;;;15.60;99.90;;;;;;4844206;29;20514;-84
2022/06/25 03:28:58;;;;;;;3.87;2.43;;;15.60;99.90;;;;;;4843091;29;20415;-84
2022/06/25 03:31:25;;;;;;;2.17;2.07;;;15.60;99.90;;;;;;4836600;29;20437;-83
2022/06/25 03:33:52;;;;;;;2.67;2.47;;;15.60;99.90;;;;;;4832056;29;20956;-82
2022/06/25 03:36:21;;;;;;;4.77;2.60;;;15.60;99.90;;;;;;4833916;29;20487;-83
2022/06/25 03:38:48;;;;;;;6.07;2.60;;;15.60;99.90;;;;;;4834447;29;20465;-84
2022/06/25 03:41:33;;;;;;;6.43;2.70;;;15.60;99.90;;;;;;4831303;29;20452;-83
2022/06/25 03:44:00;;;;;;;2.83;2.50;;;15.60;99.90;;;;;;4831939;29;20562;-85
2022/06/25 03:46:28;;;;;;;3.63;2.77;;;15.60;99.90;;;;;;4832117;29;20547;-83
2022/06/25 03:48:55;;;;;;;3.43;3.20;;;15.60;99.90;;;;;;4832674;29;20965;-83
2022/06/25 03:51:23;;;;;;;3.17;2.87;;;15.70;99.90;;;;;;4833806;29;20555;-83
2022/06/25 03:53:51;;;;;;;3.70;3.40;;;15.80;99.90;;;;;;4844382;29;20511;-88
2022/06/25 03:56:17;;;;;;;5.03;3.53;;;15.80;99.90;;;;;;4846872;29;20512;-89
2022/06/25 03:58:44;;;;;;;2.57;2.37;;;15.90;99.90;;;;;;4851004;29;20504;-89
2022/06/25 04:01:12;;;;;;;2.97;2.77;;;16.00;99.90;;;;;;4850946;29;20450;-86
2022/06/25 04:03:39;;;;;;;2.73;2.63;;;16.00;99.90;;;;;;4850875;29;20484;-87
2022/06/25 04:06:07;;;;;;;2.93;2.70;;;16.00;99.90;;;;;;4850930;29;20501;-88
2022/06/25 04:08:35;;;;;;;4.40;3.07;;;16.00;99.90;;;;;;4850859;29;20440;-87
2022/06/25 04:11:02;;;;;;;3.83;3.00;;;15.80;99.90;;;;;;4850579;29;20490;-88
2022/06/25 04:13:29;;;;;;;5.00;3.10;;;15.80;99.90;;;;;;4849278;29;20499;-86
2022/06/25 04:15:56;;;;;;;5.50;3.30;;;15.80;99.90;;;;;;4841587;29;20318;-88
2022/06/25 04:18:23;;;;;;;4.47;2.80;;;15.90;99.90;;;;;;4850732;29;20424;-89
2022/06/25 04:20:50;;;;;;;3.80;2.90;;;15.90;99.90;;;;;;4850704;29;20447;-88
2022/06/25 04:23:17;;;;;;;3.50;3.20;;;15.90;99.90;;;;;;4850647;29;20494;-89
2022/06/25 04:25:45;;;;;;;4.60;3.67;;;15.90;99.90;;;;;;4837064;29;20483;-84
2022/06/25 04:30:56;;;;;;;3.63;3.10;;;16.00;99.90;;;;;;4829621;29;20423;-85
2022/06/25 04:33:23;;;;;;;2.47;2.27;;;16.10;99.90;;;;;;4831581;29;20498;-84
2022/06/25 04:35:50;;;;;;;3.53;3.23;;;16.20;99.90;;;;;;4831962;29;20540;-84
2022/06/25 04:38:17;;;;;;;6.00;3.10;;;16.20;99.90;;;;;;4833183;29;20467;-84
2022/06/25 04:40:46;;;;;;;2.77;2.57;;;16.30;99.90;;;;;;4833183;29;20454;-85
2022/06/25 04:43:12;;;;;;;3.27;3.07;;;16.30;99.90;;;;;;4834058;29;20577;-82
2022/06/25 04:45:40;;;;;;;2.90;2.70;;;16.50;99.90;;;;;;4846331;29;20444;-84
2022/06/25 04:48:07;;;;;;;6.23;2.50;;;16.60;99.90;;;;;;4848083;29;20459;-84
2022/06/25 04:50:34;;;;;;;2.73;2.63;;;16.70;99.90;;;;;;4848658;29;20535;-86
2022/06/25 04:53:01;;;;;;;5.40;2.27;;;16.90;99.90;;;;;;4849869;29;20475;-88
2022/06/25 04:55:28;;;;;;;2.30;2.07;;;17.20;99.90;;;;;;4849873;29;20485;-85
2022/06/25 04:57:56;;;;;;;6.83;3.33;;;17.70;98.10;;;;;;4849820;29;20451;-86
2022/06/25 05:00:23;;;;;;;4.63;2.50;;;18.40;92.90;;;;;;4850066;29;20448;-85
2022/06/25 05:02:53;;;;;;;1.93;1.50;;;19.40;83.50;;;;;;4850068;29;20475;-85
2022/06/25 05:05:20;;;;;;;1.67;1.40;;;20.60;72.10;;;;;;4849869;29;20443;-86
2022/06/25 05:07:47;;;;;;;4.80;1.50;;;21.70;61.30;;;;;;4847970;29;20435;-83
2022/06/25 05:10:14;;;;;;;3.17;1.43;;;22.60;56.20;;;;;;4834887;29;20449;-84
2022/06/25 05:15:26;;;;;;;2.30;1.37;;;24.10;49.60;;;;;;4833809;29;20440;-83
2022/06/25 05:17:53;;;;;;;2.93;1.40;;;24.70;46.40;;;;;;4833246;29;20478;-84
2022/06/25 05:20:20;;;;;;;5.50;1.47;;;25.00;43.90;;;;;;4834006;29;20475;-84
2022/06/25 05:22:47;;;;;;;2.13;1.77;;;25.10;43.50;;;;;;4836427;29;20511;-84
2022/06/25 05:25:14;;;;;;;2.53;1.80;;;25.40;43.80;;;;;;4839242;29;20584;-83
2022/06/25 05:27:41;;;;;;;3.73;1.63;;;25.90;42.10;;;;;;4843718;29;20468;-82
2022/06/25 05:30:08;;;;;;;1.60;1.47;;;25.90;41.20;;;;;;4842724;29;20446;-82
2022/06/25 05:32:37;;;;;;;3.40;1.47;;;26.20;40.70;;;;;;4839116;29;20473;-84
2022/06/25 05:35:04;;;;;;;2.73;2.50;;;26.40;39.30;;;;;;4835916;29;20468;-83
2022/06/25 05:37:31;;;;;;;3.30;1.53;;;26.50;38.60;;;;;;4831938;29;20557;-84
2022/06/25 05:39:58;;;;;;;3.43;2.33;;;26.90;37.70;;;;;;4831266;29;20465;-83
2022/06/25 05:42:25;;;;;;;2.00;1.30;;;27.20;36.30;;;;;;4831426;29;20444;-84
2022/06/25 05:44:52;;;;;;;2.23;1.00;;;27.20;35.40;;;;;;4839418;29;20478;-85
2022/06/25 05:47:19;;;;;;;1.33;1.13;;;27.00;36.30;;;;;;4849179;29;20471;-85
2022/06/25 05:49:48;;;;;;;2.63;1.57;;;26.90;36.50;;;;;;4849155;29;20480;-87
2022/06/25 05:52:16;;;;;;;2.20;1.07;;;27.10;36.20;;;;;;4849001;29;20521;-83
2022/06/25 05:54:43;;;;;;;2.60;1.20;;;26.80;37.80;;;;;;4848766;29;20440;-85
2022/06/25 05:57:10;;;;;;;1.20;1.03;;;27.20;37.10;;;;;;4848948;29;20542;-85
2022/06/25 05:59:37;;;;;;;1.93;1.00;;;27.50;35.90;;;;;;4848733;29;20475;-85
2022/06/25 06:02:04;;;;;;;1.00;1.00;;;27.60;35.00;;;;;;4848895;29;20462;-84
2022/06/25 06:04:31;;;;;;;1.30;1.20;;;27.80;35.10;;;;;;4844898;29;20473;-82
2022/06/25 06:07:00;;;;;;;1.93;1.53;;;28.00;35.30;;;;;;4830970;29;20490;-82
2022/06/25 06:09:28;;;;;;;2.17;1.30;;;28.00;34.00;;;;;;4831238;29;21070;-82
2022/06/25 06:11:55;;;;;;;1.67;1.10;;;28.10;34.00;;;;;;4830054;29;20486;-82
2022/06/25 06:14:23;;;;;;;1.33;1.20;;;27.90;34.10;;;;;;4830306;29;20912;-82
2022/06/25 06:16:50;;;;;;;1.17;1.07;;;25.80;38.50;;;;;;4829606;29;20524;-82
2022/06/25 06:19:17;;;;;;;1.20;1.10;;;25.40;39.70;;;;;;4829261;29;20540;-82
2022/06/25 06:21:44;;;;;;;3.40;1.20;;;24.80;41.50;;;;;;4830553;29;20452;-82
2022/06/25 06:24:13;;;;;;;1.43;1.33;;;25.90;39.00;;;;;;4829234;29;20500;-83
2022/06/25 06:26:40;;;;;;;0.90;0.90;;;26.40;37.70;;;;;;4828944;29;20555;-83
2022/06/25 06:29:07;;;;;;;0.83;0.83;;;26.70;36.60;;;;;;4829519;29;20458;-84
2022/06/25 06:31:34;;;;;;;1.10;1.00;;;26.90;35.60;;;;;;4828515;29;20473;-83
2022/06/25 06:34:01;;;;;;;3.47;0.90;;;27.10;34.60;;;;;;4830950;29;20442;-83
2022/06/25 06:36:28;;;;;;;1.10;1.00;;;27.20;34.60;;;;;;4829540;29;20490;-84
2022/06/25 06:38:55;;;;;;;2.60;0.87;;;27.70;33.50;;;;;;4834994;29;20477;-82
2022/06/25 06:41:24;;;;;;;4.30;1.10;;;27.30;34.70;;;;;;4834822;29;20553;-84
2022/06/25 06:43:51;;;;;;;3.33;1.10;;;27.00;35.00;;;;;;4834823;29;20485;-83
2022/06/25 06:46:19;;;;;;;1.10;1.00;;;27.20;34.70;;;;;;4832305;29;20522;-83
2022/06/25 06:48:46;;;;;;;2.43;1.10;;;27.80;35.10;;;;;;4829861;29;20467;-81
2022/06/25 06:51:13;;;;;;;0.80;0.80;;;28.20;33.50;;;;;;4836293;29;20449;-82
2022/06/25 06:53:40;;;;;;;3.03;0.83;;;28.20;33.40;;;;;;4841177;29;20453;-83
2022/06/25 06:56:07;;;;;;;2.10;1.00;;;28.10;34.00;;;;;;4848015;29;20475;-84
2022/06/25 06:58:36;;;;;;;2.40;1.00;;;27.80;34.50;;;;;;4848190;29;20438;-84
2022/06/25 07:01:03;;;;;;;1.03;0.87;;;27.80;33.60;;;;;;4848482;29;20421;-84
2022/06/25 07:03:30;;;;;;;3.93;1.20;;;27.40;34.80;;;;;;4847795;29;20463;-84
2022/06/25 07:05:57;;;;;;;1.37;1.30;;;26.60;34.90;;;;;;4848431;29;20532;-85
2022/06/25 07:08:24;;;;;;;1.50;1.40;;;26.00;37.30;;;;;;4848397;29;20456;-85
2022/06/25 07:10:51;;;;;;;2.30;1.20;;;25.40;39.40;;;;;;4848342;29;20511;-85
2022/06/25 07:13:18;;;;;;;2.50;1.20;;;24.90;40.80;;;;;;4848240;29;20469;-84
2022/06/25 07:15:46;;;;;;;1.37;1.27;;;24.50;40.80;;;;;;4870531;23;20577;-75
2022/06/25 07:18:13;;;;;;;0.97;0.80;;;24.20;41.80;;;;;;4860078;29;20531;-73
2022/06/25 07:20:40;;;;;;;3.07;1.43;;;24.00;42.60;;;;;;4860850;29;20438;-75
2022/06/25 07:23:07;;;;;;;1.57;1.10;;;23.80;42.30;;;;;;4866817;29;20478;-75
2022/06/25 07:25:34;;;;;;;0.93;0.80;;;23.90;42.50;;;;;;4872456;29;20471;-75
2022/06/25 07:28:01;;;;;;;3.50;1.33;;;23.60;43.20;;;;;;4878446;29;20467;-75
2022/06/25 07:30:28;;;;;;;1.43;1.30;;;23.70;43.20;;;;;;4883395;29;20471;-75
2022/06/25 07:32:57;;;;;;;2.63;1.10;;;23.40;43.60;;;;;;4888812;29;20424;-75
2022/06/25 07:35:23;;;;;;;2.10;1.20;;;23.30;45.00;;;;;;4889089;29;20486;-76
2022/06/25 07:37:50;;;;;;;2.27;1.17;;;23.40;44.10;;;;;;4889119;29;20573;-76
2022/06/25 07:40:18;;;;;;;1.73;1.40;;;23.50;44.60;;;;;;4888532;29;20429;-75
2022/06/25 07:42:45;;;;;;;2.73;1.27;;;23.40;44.50;;;;;;4881260;29;20479;-76
2022/06/25 07:45:12;;;;;;;1.30;1.20;;;23.40;44.80;;;;;;4888299;29;20530;-75
2022/06/25 07:47:39;;;;;;;3.27;1.40;;;23.40;45.10;;;;;;4888919;29;20478;-76
2022/06/25 07:52:53;;;;;;;1.10;1.03;;;23.10;44.50;;;;;;4870154;29;20921;-75
2022/06/25 07:55:20;;;;;;;1.40;1.30;;;23.00;45.30;;;;;;4866914;29;20934;-75
2022/06/25 07:57:47;;;;;;;4.10;1.00;;;23.00;45.30;;;;;;4866783;29;20484;-75
2022/06/25 08:00:15;;;;;;;2.60;1.40;;;23.10;45.80;;;;;;4866277;29;20448;-75
2022/06/25 08:02:42;;;;;;;1.40;1.30;;;23.10;45.70;;;;;;4866495;29;20481;-75
2022/06/25 08:05:10;;;;;;;3.10;1.50;;;23.10;45.40;;;;;;4866996;29;20500;-75
2022/06/25 08:07:37;;;;;;;3.33;1.60;;;23.10;45.10;;;;;;4866590;29;20484;-76
2022/06/25 08:10:05;;;;;;;1.20;1.10;;;23.20;45.40;;;;;;4868470;29;20513;-76
2022/06/25 08:12:31;;;;;;;1.03;1.03;;;23.00;44.50;;;;;;4868490;29;20440;-76
2022/06/25 08:14:58;;;;;;;2.23;1.20;;;22.90;45.20;;;;;;4868713;29;20476;-76
2022/06/25 08:17:25;;;;;;;1.33;1.23;;;23.10;44.80;;;;;;4868497;29;20497;-76
2022/06/25 08:19:52;;;;;;;3.57;1.37;;;23.00;45.40;;;;;;4869667;29;20473;-75
2022/06/25 08:22:20;;;;;;;1.50;1.40;;;23.10;45.30;;;;;;4870330;29;20463;-75
2022/06/25 08:24:47;;;;;;;1.50;1.40;;;23.40;43.90;;;;;;4869673;29;20512;-75
2022/06/25 08:27:14;;;;;;;1.67;1.57;;;23.30;41.90;;;;;;4872229;29;20505;-75
2022/06/25 08:29:41;;;;;;;2.10;1.43;;;23.30;45.00;;;;;;4867915;29;20528;-74
2022/06/25 08:32:08;;;;;;;4.30;1.10;;;23.70;43.60;;;;;;4867652;29;20470;-76
2022/06/25 08:34:35;;;;;;;1.67;1.43;;;23.80;42.30;;;;;;4867570;29;20482;-75
2022/06/25 08:37:02;;;;;;;1.73;1.63;;;23.80;41.40;;;;;;4866700;29;20470;-75
2022/06/25 08:39:30;;;;;;;2.80;1.30;;;23.90;41.90;;;;;;4866060;29;20468;-76
2022/06/25 08:42:00;;;;;;;1.73;1.50;;;24.10;42.60;;;;;;4864720;29;20433;-76
2022/06/25 08:44:27;;;;;;;3.50;1.90;;;24.20;40.90;;;;;;4867315;29;20928;-76
2022/06/25 08:46:54;;;;;;;1.50;1.40;;;24.20;40.80;;;;;;4867267;29;20482;-77
2022/06/25 08:49:22;;;;;;;4.03;1.70;;;24.40;40.70;;;;;;4867136;29;20448;-76
2022/06/25 08:51:50;;;;;;;1.57;1.20;;;24.10;40.80;;;;;;4866936;29;20470;-76
2022/06/25 08:54:18;;;;;;;1.50;1.40;;;24.20;40.20;;;;;;4868373;29;20542;-76
2022/06/25 08:56:47;;;;;;;2.43;1.60;;;23.40;42.00;;;;;;4866988;29;20457;-76
2022/06/25 08:59:13;;;;;;;1.77;1.60;;;23.40;42.00;;;;;;4865158;29;20544;-76
2022/06/25 09:01:40;;;;;;;4.80;1.20;;;24.10;42.60;;;;;;4864887;29;20464;-76
2022/06/25 09:04:07;;;;;;;1.47;1.37;;;23.90;42.50;;;;;;4864971;29;20462;-76
2022/06/25 09:06:34;;;;;;;1.80;1.50;;;23.90;41.90;;;;;;4865228;29;20485;-76
2022/06/25 09:09:10;;;;;;;1.57;1.30;;;23.80;42.30;;;;;;4864779;29;20466;-76
2022/06/25 09:11:54;;;;;;;2.30;1.20;;;24.30;41.50;;;;;;4863878;29;20839;-76
2022/06/25 09:14:24;;;;;;;1.50;1.40;;;24.20;42.70;;;;;;4864812;29;20560;-75
2022/06/25 09:16:56;;;;;;;2.30;1.40;;;24.70;40.80;;;;;;4871395;29;20516;-75
2022/06/25 09:19:31;;;;;;;1.67;1.43;;;24.70;41.60;;;;;;4865238;29;20436;-76
2022/06/25 09:21:58;;;;;;;2.57;1.77;;;24.60;41.00;;;;;;4864491;29;20465;-75
2022/06/25 09:24:38;;;;;;;1.63;1.30;;;24.30;41.50;;;;;;4863104;29;20465;-75
2022/06/25 09:27:07;;;;;;;1.20;1.10;;;24.60;40.70;;;;;;4870434;29;20554;-77
2022/06/25 09:29:38;;;;;;;2.37;1.50;;;24.90;39.10;;;;;;4871892;29;20505;-74
2022/06/25 09:32:05;;;;;;;2.60;1.60;;;25.10;39.10;;;;;;4872983;29;20476;-76
2022/06/25 09:34:34;;;;;;;2.30;1.50;;;25.10;38.40;;;;;;4872161;29;20470;-75
2022/06/25 09:37:17;;;;;;;3.00;1.67;;;25.00;38.90;;;;;;4870473;29;20455;-77
2022/06/25 09:39:45;;;;;;;2.37;1.70;;;24.90;38.40;;;;;;4871600;29;20511;-78
2022/06/25 09:42:26;;;;;;;1.40;1.30;;;25.00;39.00;;;;;;4871291;29;20527;-76
2022/06/25 09:45:06;;;;;;;1.67;1.57;;;25.40;37.70;;;;;;4866254;29;20504;-75
2022/06/25 09:47:37;;;;;;;1.70;1.60;;;24.80;38.80;;;;;;4866399;29;20853;-77
2022/06/25 09:50:06;;;;;;;4.93;1.47;;;24.50;40.00;;;;;;4865117;29;20429;-76
2022/06/25 09:52:33;;;;;;;2.50;1.67;;;24.80;39.40;;;;;;4863751;29;20680;-76
2022/06/25 09:55:00;;;;;;;1.90;1.80;;;25.00;39.10;;;;;;4864460;29;20535;-75
2022/06/25 09:57:29;;;;;;;2.53;1.27;;;25.60;37.80;;;;;;4864190;29;20483;-75
2022/06/25 09:59:56;;;;;;;1.40;1.23;;;25.90;37.30;;;;;;4866108;29;20441;-77
2022/06/25 10:02:27;;;;;;;1.57;1.47;;;25.90;36.60;;;;;;4865653;29;20526;-75
2022/06/25 10:05:00;;;;;;;2.20;1.33;;;25.80;35.90;;;;;;4866400;29;20494;-76
2022/06/25 10:10:12;;;;;;;4.27;1.70;;;25.50;37.90;;;;;;4869968;29;20444;-77
2022/06/25 10:12:40;;;;;;;2.80;1.60;;;26.10;36.80;;;;;;4872310;29;20946;-76
2022/06/25 10:15:08;;;;;;;2.30;1.67;;;26.20;35.60;;;;;;4871933;29;20449;-76
2022/06/25 10:17:35;;;;;;;1.50;1.40;;;25.60;37.90;;;;;;4868469;29;20470;-75
2022/06/25 10:20:02;;;;;;;1.60;1.50;;;25.90;37.20;;;;;;4868218;29;20457;-77
2022/06/25 10:22:30;;;;;;;3.00;1.70;;;26.00;37.30;;;;;;4870012;29;20913;-76
2022/06/25 10:24:59;;;;;;;4.30;1.87;;;26.60;36.00;;;;;;4870951;29;20619;-77
2022/06/25 10:27:26;;;;;;;1.40;1.30;;;26.80;35.00;;;;;;4872986;29;20480;-76
2022/06/25 10:29:56;;;;;;;1.87;1.67;;;26.00;35.90;;;;;;4871170;29;20473;-77
2022/06/25 10:32:27;;;;;;;2.37;1.43;;;25.40;37.40;;;;;;4871337;29;20502;-77
2022/06/25 10:34:55;;;;;;;1.97;1.67;;;25.50;38.00;;;;;;4871284;29;20442;-76
2022/06/25 10:37:22;;;;;;;2.27;1.67;;;26.00;37.30;;;;;;4873482;29;20531;-76
2022/06/25 10:39:50;;;;;;;1.77;1.60;;;26.60;36.40;;;;;;4868253;29;21047;-76
2022/06/25 10:45:48;;;;;;;2.37;1.57;;;25.90;36.70;;;;;;4869679;29;20535;-76
2022/06/25 10:48:15;;;;;;;7.07;1.73;;;26.20;35.70;;;;;;4836951;29;20482;-76
2022/06/25 10:50:48;;;;;;;5.40;1.83;;;25.90;37.50;;;;;;4869427;29;20472;-76
2022/06/25 10:53:20;;;;;;;1.50;1.40;;;25.70;37.80;;;;;;4868204;29;20465;-77
2022/06/25 10:56:16;;;;;;;1.90;1.60;;;26.40;35.30;;;;;;4868950;29;20808;-77
2022/06/25 10:58:48;;;;;;;2.43;1.50;;;26.90;34.50;;;;;;4837075;29;20442;-79
2022/06/25 11:01:26;;;;;;;5.37;1.90;;;26.30;35.80;;;;;;4862933;29;20475;-77
2022/06/25 11:03:55;;;;;;;1.80;1.70;;;26.00;37.30;;;;;;4860528;29;20939;-77
2022/06/25 11:06:24;;;;;;;1.63;1.53;;;26.00;37.10;;;;;;4859820;29;20485;-76
2022/06/25 11:08:52;;;;;;;1.70;1.57;;;25.90;37.00;;;;;;4860410;29;20552;-76
2022/06/25 11:11:26;;;;;;;2.70;1.80;;;25.50;37.70;;;;;;4860770;29;20441;-77
2022/06/25 11:13:54;;;;;;;2.20;2.00;;;25.60;38.40;;;;;;4863041;29;20464;-76
2022/06/25 11:16:22;;;;;;;2.40;1.50;;;25.80;37.70;;;;;;4865720;29;20471;-76
2022/06/25 11:18:51;;;;;;;2.90;1.93;;;26.30;36.30;;;;;;4863879;29;20904;-76
2022/06/25 11:21:39;;;;;;;2.70;1.57;;;26.30;35.90;;;;;;4863726;29;20475;-77
2022/06/25 11:24:18;;;;;;;2.70;1.43;;;26.70;35.40;;;;;;4863703;29;20468;-76
2022/06/25 11:29:33;;;;;;;3.07;1.80;;;27.30;34.70;;;;;;4861580;29;20434;-76
2022/06/25 11:32:02;;;;;;;2.13;1.80;;;26.30;36.30;;;;;;4861128;29;20871;-76
2022/06/25 11:34:30;;;;;;;2.00;1.90;;;26.00;37.60;;;;;;4861241;29;20445;-76
2022/06/25 11:37:04;;;;;;;2.20;1.97;;;26.10;36.90;;;;;;4861753;29;20564;-77
2022/06/25 11:39:31;;;;;;;1.90;1.80;;;25.80;37.90;;;;;;4861060;29;20458;-76
2022/06/25 11:41:59;;;;;;;2.30;1.60;;;26.00;37.70;;;;;;4860793;29;20465;-76
2022/06/25 11:44:26;;;;;;;2.30;2.10;;;25.80;38.20;;;;;;4860717;29;20466;-76
2022/06/25 11:46:54;;;;;;;2.50;2.30;;;25.80;37.90;;;;;;4860264;29;20482;-76
2022/06/25 11:49:23;;;;;;;3.27;1.80;;;25.80;37.90;;;;;;4862210;29;20735;-76
2022/06/25 11:51:55;;;;;;;1.93;1.80;;;26.30;36.00;;;;;;4863221;29;20453;-76
2022/06/25 11:54:24;;;;;;;2.17;1.70;;;26.80;34.70;;;;;;4872217;29;20502;-76
2022/06/25 11:56:53;;;;;;;1.83;1.73;;;26.90;34.50;;;;;;4879274;29;20484;-77
2022/06/25 11:59:28;;;;;;;2.47;2.27;;;27.10;33.70;;;;;;4868712;29;20553;-75
2022/06/25 12:01:56;;;;;;;4.40;1.67;;;27.10;32.10;;;;;;4869914;29;20539;-76
2022/06/25 12:04:24;;;;;;;5.93;2.00;;;27.60;31.60;;;;;;4879687;29;20458;-76
2022/06/25 12:06:52;;;;;;;3.53;1.60;;;28.00;31.50;;;;;;4879331;29;20494;-77
2022/06/25 12:09:21;;;;;;;2.03;1.83;;;28.40;29.70;;;;;;4867779;29;20808;-75
2022/06/25 12:11:55;;;;;;;1.73;1.63;;;28.50;29.50;;;;;;4866151;29;20467;-76
2022/06/25 12:14:24;;;;;;;1.70;1.60;;;28.90;29.60;;;;;;4874370;29;20461;-77
2022/06/25 12:16:52;;;;;;;1.70;1.60;;;28.80;28.60;;;;;;4879799;29;20450;-77
2022/06/25 12:19:19;;;;;;;2.20;1.60;;;28.30;28.80;;;;;;4878743;29;20475;-76
2022/06/25 12:21:48;;;;;;;2.47;1.57;;;28.60;29.00;;;;;;4875914;29;20456;-77
2022/06/25 12:24:19;;;;;;;3.23;2.27;;;28.90;27.80;;;;;;4876603;29;20440;-75
2022/06/25 12:26:55;;;;;;;1.67;1.57;;;28.90;27.90;;;;;;4876357;29;20578;-76
2022/06/25 12:29:25;;;;;;;3.07;1.53;;;28.30;28.50;;;;;;4875712;29;20536;-77
2022/06/25 12:31:55;;;;;;;1.53;1.43;;;28.50;26.90;;;;;;4876703;29;20441;-77
2022/06/25 12:34:22;;;;;;;1.47;1.37;;;28.50;27.00;;;;;;4877512;29;20933;-77
2022/06/25 12:36:51;;;;;;;2.10;1.63;;;28.80;26.90;;;;;;4876661;29;20467;-76
2022/06/25 12:39:29;;;;;;;3.20;1.40;;;28.80;28.00;;;;;;4876337;29;20723;-75
2022/06/25 12:41:56;;;;;;;2.83;1.57;;;28.70;27.60;;;;;;4876568;29;20441;-76
2022/06/25 12:44:23;;;;;;;4.23;1.53;;;28.90;28.00;;;;;;4880475;29;20486;-75
2022/06/25 12:47:09;;;;;;;1.67;1.57;;;29.10;26.50;;;;;;4876327;29;20552;-77
2022/06/25 12:49:45;;;;;;;1.57;1.43;;;29.10;26.40;;;;;;4876457;29;20549;-76
2022/06/25 12:52:16;;;;;;;1.60;1.40;;;29.10;26.50;;;;;;4879235;29;20441;-76
2022/06/25 12:54:45;;;;;;;1.77;1.67;;;28.80;26.40;;;;;;4878020;29;20457;-77
2022/06/25 12:57:20;;;;;;;1.73;1.63;;;28.10;28.10;;;;;;4878374;29;20466;-76
2022/06/25 12:59:48;;;;;;;1.50;1.40;;;27.40;29.00;;;;;;4878991;29;20476;-77
2022/06/25 13:02:15;;;;;;;3.70;1.77;;;26.90;29.90;;;;;;4874052;29;20460;-76
2022/06/25 13:04:42;;;;;;;1.80;1.70;;;27.00;29.50;;;;;;4878907;29;20606;-76
2022/06/25 13:07:09;;;;;;;2.27;1.70;;;27.20;29.60;;;;;;4878902;29;20514;-75
2022/06/25 13:09:38;;;;;;;1.80;1.70;;;27.70;29.00;;;;;;4879663;29;20495;-77
2022/06/25 13:12:05;;;;;;;1.50;1.40;;;27.90;28.50;;;;;;4874550;29;20461;-77
2022/06/25 13:14:32;;;;;;;2.97;1.80;;;27.80;28.60;;;;;;4868182;29;20491;-76